Time;durP1;ratioP1;P1;durP2;ratioP2;P2;SDS_P1;SDS_P2;PMS_P1;PMS_P2;Temp;Humidity;BMP_temperature;BMP_pressure;BME280_temperature;BME280_humidity;BME280_pressure;Samples;Min_cycle;Max_cycle;Signal;HPM_P1;HPM_P2
2021/07/23 00:01:33;;;;;;;6.25;5.75;;;;;;;19.99;59.50;94579.29;828438;71;29776;-73
2021/07/23 00:16:22;;;;;;;6.30;5.75;;;;;;;19.86;60.15;94584.52;827922;71;32679;-74
2021/07/23 00:31:14;;;;;;;5.65;5.15;;;;;;;19.70;60.01;94585.81;828906;71;29711;-73
2021/07/23 00:46:18;;;;;;;6.20;5.72;;;;;;;19.60;60.26;94577.20;834050;71;32774;-73
2021/07/23 01:01:11;;;;;;;6.70;5.92;;;;;;;19.47;60.30;94568.33;834042;71;30525;-72
2021/07/23 01:16:23;;;;;;;10.60;9.58;;;;;;;19.37;61.13;94564.28;833793;71;29716;-72
2021/07/23 01:31:27;;;;;;;5.85;5.35;;;;;;;19.25;61.06;94557.70;827445;71;32667;-74
2021/07/23 01:46:18;;;;;;;5.50;5.00;;;;;;;19.10;61.06;94552.01;827912;71;29759;-75
2021/07/23 02:01:22;;;;;;;5.53;5.03;;;;;;;18.99;61.44;94558.92;827107;71;33079;-75
2021/07/23 02:16:19;;;;;;;6.95;6.25;;;;;;;18.90;62.26;94563.06;827217;71;33169;-74
2021/07/23 02:31:11;;;;;;;7.92;7.12;;;;;;;18.75;62.82;94561.84;828036;71;29703;-75
2021/07/23 02:46:15;;;;;;;7.85;7.05;;;;;;;18.32;64.52;94560.64;827271;71;32690;-73
2021/07/23 03:16:14;;;;;;;7.35;6.60;;;;;;;17.71;66.73;94565.40;827939;71;30307;-74
2021/07/23 03:31:15;;;;;;;7.17;6.53;;;;;;;17.71;66.81;94562.74;833624;71;33214;-74
2021/07/23 03:46:38;;;;;;;6.85;6.25;;;;;;;18.97;63.96;94563.80;828069;71;30299;-73
2021/07/23 04:01:21;;;;;;;7.72;6.72;;;;;;;19.93;61.34;94573.48;829058;71;30264;-73
2021/07/23 04:16:25;;;;;;;6.78;6.17;;;;;;;21.07;58.90;94565.03;827794;71;31736;-75
2021/07/23 04:31:23;;;;;;;7.90;7.10;;;;;;;22.01;55.09;94559.39;834593;71;31821;-74
2021/07/23 04:46:14;;;;;;;7.77;7.07;;;;;;;22.84;53.07;94555.94;834014;71;28865;-72
2021/07/23 05:01:13;;;;;;;8.07;7.37;;;;;;;23.29;51.63;94556.83;828039;71;29308;-75
2021/07/23 05:16:10;;;;;;;8.43;7.37;;;;;;;23.70;50.79;94545.34;828613;71;28818;-74
2021/07/23 05:31:34;;;;;;;8.37;7.53;;;;;;;24.22;49.23;94546.72;834014;71;31761;-73
2021/07/23 05:46:20;;;;;;;9.90;7.97;;;;;;;25.18;47.02;94551.20;828212;71;28690;-75
2021/07/23 06:01:24;;;;;;;7.43;6.73;;;;;;;25.91;45.50;94552.09;828777;71;32173;-74
2021/07/23 06:16:17;;;;;;;7.83;7.13;;;;;;;27.56;41.34;94553.70;828357;71;28442;-74
2021/07/23 06:31:31;;;;;;;8.50;6.13;;;;;;;28.52;39.89;94554.09;829174;71;28851;-77
2021/07/23 06:46:19;;;;;;;6.73;6.20;;;;;;;29.74;38.02;94549.86;827499;71;31721;-74
2021/07/23 07:01:12;;;;;;;6.40;5.83;;;;;;;30.62;36.63;94538.55;827964;71;28713;-73
2021/07/23 07:16:30;;;;;;;7.10;6.40;;;;;;;31.41;34.60;94536.95;827036;71;31715;-73
2021/07/23 07:31:21;;;;;;;6.77;6.13;;;;;;;32.10;33.70;94517.17;834108;71;29444;-74
2021/07/23 07:46:18;;;;;;;7.77;5.93;;;;;;;32.86;31.92;94518.66;827926;71;28810;-76
2021/07/23 08:01:22;;;;;;;8.77;5.93;;;;;;;33.63;30.58;94516.03;828651;71;31807;-75
2021/07/23 08:16:17;;;;;;;6.93;6.40;;;;;;;32.81;30.38;94513.73;828453;71;30961;-75
2021/07/23 08:31:11;;;;;;;6.50;6.00;;;;;;;32.06;29.66;94515.14;833980;71;29171;-74
2021/07/23 08:46:09;;;;;;;5.77;5.27;;;;;;;31.71;29.53;94498.49;828216;71;28818;-75
2021/07/23 09:16:29;;;;;;;5.50;5.10;;;;;;;33.93;25.61;94480.64;833817;71;28164;-73
2021/07/23 09:31:33;;;;;;;5.80;5.40;;;;;;;33.69;25.16;94478.90;833807;71;28507;-75
2021/07/23 09:46:24;;;;;;;5.90;5.50;;;;;;;32.28;23.37;94471.87;827264;71;31168;-74
2021/07/23 10:01:15;;;;;;;7.27;6.67;;;;;;;33.81;23.61;94452.85;835022;71;28203;-76
2021/07/23 10:16:11;;;;;;;6.50;5.83;;;;;;;31.49;24.90;94444.76;828371;71;27093;-73
2021/07/23 10:31:34;;;;;;;7.40;6.80;;;;;;;32.91;22.87;94437.93;827280;71;31294;-74
2021/07/23 10:46:44;;;;;;;7.87;7.17;;;;;;;32.38;23.97;94419.81;827269;71;30822;-76
2021/07/23 11:01:27;;;;;;;7.23;6.57;;;;;;;32.66;23.83;94414.94;833812;71;28197;-74
2021/07/23 11:16:27;;;;;;;7.87;7.23;;;;;;;31.40;25.74;94392.27;827159;71;32067;-76
2021/07/23 11:31:33;;;;;;;7.67;7.07;;;;;;;31.18;26.08;94380.56;827962;71;28883;-75
2021/07/23 11:46:33;;;;;;;7.27;6.67;;;;;;;31.46;25.91;94373.71;845008;69;31616;-76
2021/07/23 12:01:14;;;;;;;7.30;6.80;;;;;;;30.68;27.20;94379.74;828130;71;29470;-73
2021/07/23 12:31:39;;;;;;;7.87;7.17;;;;;;;29.21;30.48;94355.41;828439;71;28616;-73
2021/07/23 12:46:35;;;;;;;7.63;7.03;;;;;;;29.87;28.65;94341.73;833855;71;29530;-75
2021/07/23 13:01:18;;;;;;;7.70;6.93;;;;;;;30.60;27.37;94328.83;829285;71;29816;-75
2021/07/23 13:16:20;;;;;;;7.53;6.93;;;;;;;31.43;28.24;94320.88;828000;71;29266;-75
2021/07/23 13:31:17;;;;;;;7.93;7.23;;;;;;;30.90;27.92;94310.95;828192;71;30230;-75
2021/07/23 13:46:31;;;;;;;7.53;7.00;;;;;;;31.04;28.04;94302.30;832058;70;33149;-75
2021/07/23 14:01:16;;;;;;;7.00;6.40;;;;;;;30.64;28.12;94301.86;833787;71;32527;-75
2021/07/23 14:16:37;;;;;;;6.77;6.27;;;;;;;31.05;29.02;94297.81;827821;71;29318;-73
2021/07/23 14:46:44;;;;;;;8.30;7.60;;;;;;;30.31;32.34;94298.32;827050;71;32344;-74
2021/07/23 15:16:09;;;;;;;7.97;7.30;;;;;;;29.28;33.92;94307.22;833820;71;28731;-76
2021/07/23 15:31:18;;;;;;;9.10;8.30;;;;;;;28.44;35.56;94294.03;834438;71;29731;-73
2021/07/23 15:46:34;;;;;;;9.77;8.93;;;;;;;28.47;35.96;94299.38;832462;71;32404;-74
2021/07/23 16:01:42;;;;;;;10.30;9.40;;;;;;;27.62;38.00;94312.00;834099;71;29875;-75
2021/07/23 16:16:39;;;;;;;9.87;9.00;;;;;;;;;;829087;71;29325;-76
2021/07/23 16:46:32;;;;;;;10.70;9.87;;;;;;;26.10;40.75;94323.67;827421;71;33208;-75
2021/07/23 17:01:21;;;;;;;11.07;10.17;;;;;;;26.12;41.01;94318.67;828125;71;29533;-75
2021/07/23 17:16:33;;;;;;;11.60;10.70;;;;;;;25.58;42.84;94322.86;824313;71;33008;-75
2021/07/23 17:46:42;;;;;;;13.07;11.97;;;;;;;24.87;43.01;94343.82;834284;71;33360;-75
2021/07/23 18:01:23;;;;;;;12.57;11.50;;;;;;;24.62;43.60;94360.67;833823;71;29784;-74
2021/07/23 18:16:21;;;;;;;13.73;12.37;;;;;;;24.36;44.32;94369.19;827543;71;31976;-74
2021/07/23 18:31:25;;;;;;;13.00;11.70;;;;;;;24.17;45.22;94376.23;827526;71;33182;-75
2021/07/23 18:46:26;;;;;;;12.77;11.63;;;;;;;24.14;45.59;94395.74;828405;71;32755;-75
2021/07/23 19:01:23;;;;;;;12.50;11.40;;;;;;;24.10;46.18;94402.42;827557;71;32730;-75
2021/07/23 19:16:27;;;;;;;15.80;12.00;;;;;;;24.14;46.68;94422.56;834317;71;29714;-77
2021/07/23 19:31:42;;;;;;;14.90;12.33;;;;;;;24.11;46.76;94416.04;834678;71;32608;-73
2021/07/23 20:01:17;;;;;;;14.67;12.70;;;;;;;24.07;48.11;94405.87;828576;71;29776;-78
2021/07/23 20:16:19;;;;;;;15.80;12.80;;;;;;;24.03;48.45;94401.06;828784;71;30378;-75
2021/07/23 20:31:42;;;;;;;16.30;12.63;;;;;;;23.95;48.70;94410.98;834516;71;32858;-72
2021/07/23 20:46:13;;;;;;;19.33;11.80;;;;;;;23.90;48.92;94426.06;834630;71;30285;-75
2021/07/23 21:16:20;;;;;;;13.10;11.70;;;;;;;23.49;50.21;94429.42;829588;71;30330;-76
2021/07/23 21:31:17;;;;;;;12.70;11.60;;;;;;;23.19;50.49;94432.45;828893;71;32726;-75
2021/07/23 21:46:21;;;;;;;12.93;11.83;;;;;;;23.15;50.95;94438.32;829330;71;30530;-75
2021/07/23 22:01:13;;;;;;;15.20;13.70;;;;;;;23.19;52.02;94431.66;835192;71;30295;-73
2021/07/23 22:31:11;;;;;;;15.63;14.13;;;;;;;22.98;53.39;94436.24;828660;71;30369;-76
2021/07/23 23:01:28;;;;;;;13.93;12.53;;;;;;;22.46;54.00;94434.74;829089;71;29837;-74
2021/07/23 23:31:17;;;;;;;13.55;12.33;;;;;;;22.06;54.81;94418.00;834203;71;29893;-73
2021/07/23 23:46:16;;;;;;;13.88;12.58;;;;;;;21.86;55.24;94414.14;829218;71;30311;-75
